sensor_id;sensor_type;location;lat;lon;timestamp;pressure;altitude;pressure_sealevel;temperature;humidity
25420;BME280;13354;48.174;11.566;2023-03-25T00:00:57;95184.91;;;9.93;68.33
25420;BME280;13354;48.174;11.566;2023-03-25T00:03:24;95185.69;;;9.81;68.52
25420;BME280;13354;48.174;11.566;2023-03-25T00:05:50;95188.53;;;9.86;68.62
25420;BME280;13354;48.174;11.566;2023-03-25T00:08:15;95180.22;;;9.89;68.25
25420;BME280;13354;48.174;11.566;2023-03-25T00:10:41;95184.09;;;9.93;67.91
25420;BME280;13354;48.174;11.566;2023-03-25T00:13:06;95172.09;;;9.84;68.36
25420;BME280;13354;48.174;11.566;2023-03-25T00:15:32;95166.78;;;9.77;68.43
25420;BME280;13354;48.174;11.566;2023-03-25T00:18:00;95184.06;;;9.73;68.79
25420;BME280;13354;48.174;11.566;2023-03-25T00:20:26;95171.28;;;9.83;68.04
25420;BME280;13354;48.174;11.566;2023-03-25T00:22:52;95171.81;;;9.65;68.23
25420;BME280;13354;48.174;11.566;2023-03-25T00:25:18;95173.84;;;9.63;68.10
25420;BME280;13354;48.174;11.566;2023-03-25T00:27:45;95162.31;;;9.84;67.50
25420;BME280;13354;48.174;11.566;2023-03-25T00:30:12;95171.66;;;9.74;67.66
25420;BME280;13354;48.174;11.566;2023-03-25T00:32:39;95166.75;;;9.71;67.46
25420;BME280;13354;48.174;11.566;2023-03-25T00:35:04;95163.94;;;9.72;67.27
25420;BME280;13354;48.174;11.566;2023-03-25T00:37:30;95162.50;;;9.83;66.75
25420;BME280;13354;48.174;11.566;2023-03-25T00:39:55;95158.22;;;9.68;67.44
25420;BME280;13354;48.174;11.566;2023-03-25T00:42:21;95152.13;;;9.81;66.86
25420;BME280;13354;48.174;11.566;2023-03-25T00:44:50;95157.41;;;9.75;66.60
25420;BME280;13354;48.174;11.566;2023-03-25T00:47:15;95149.91;;;9.85;66.10
25420;BME280;13354;48.174;11.566;2023-03-25T00:49:42;95156.59;;;9.74;66.16
25420;BME280;13354;48.174;11.566;2023-03-25T00:52:07;95155.00;;;9.86;65.60
25420;BME280;13354;48.174;11.566;2023-03-25T00:54:33;95154.38;;;9.78;65.96
25420;BME280;13354;48.174;11.566;2023-03-25T00:56:58;95145.84;;;9.76;66.24
25420;BME280;13354;48.174;11.566;2023-03-25T00:59:23;95126.75;;;9.87;64.98
25420;BME280;13354;48.174;11.566;2023-03-25T01:01:48;95147.06;;;9.80;65.54
25420;BME280;13354;48.174;11.566;2023-03-25T01:04:17;95152.13;;;9.81;65.49
25420;BME280;13354;48.174;11.566;2023-03-25T01:06:42;95144.84;;;9.83;65.06
25420;BME280;13354;48.174;11.566;2023-03-25T01:09:08;95143.19;;;9.82;65.31
25420;BME280;13354;48.174;11.566;2023-03-25T01:11:34;95135.28;;;9.89;64.96
25420;BME280;13354;48.174;11.566;2023-03-25T01:14:02;95139.72;;;9.82;64.97
25420;BME280;13354;48.174;11.566;2023-03-25T01:16:28;95148.88;;;9.86;64.97
25420;BME280;13354;48.174;11.566;2023-03-25T01:18:53;95142.00;;;9.91;64.84
25420;BME280;13354;48.174;11.566;2023-03-25T01:21:19;95148.69;;;9.94;64.52
25420;BME280;13354;48.174;11.566;2023-03-25T01:23:44;95147.69;;;9.95;64.57
25420;BME280;13354;48.174;11.566;2023-03-25T01:26:09;95151.75;;;9.91;64.57
25420;BME280;13354;48.174;11.566;2023-03-25T01:28:36;95149.09;;;9.98;64.46
25420;BME280;13354;48.174;11.566;2023-03-25T01:31:03;95144.81;;;9.90;64.64
25420;BME280;13354;48.174;11.566;2023-03-25T01:33:29;95158.88;;;9.97;64.27
25420;BME280;13354;48.174;11.566;2023-03-25T01:35:54;95151.75;;;9.91;64.78
25420;BME280;13354;48.174;11.566;2023-03-25T01:38:20;95140.78;;;10.01;64.50
25420;BME280;13354;48.174;11.566;2023-03-25T01:40:45;95138.75;;;10.03;64.28
25420;BME280;13354;48.174;11.566;2023-03-25T01:43:10;95138.13;;;10.01;64.19
25420;BME280;13354;48.174;11.566;2023-03-25T01:45:37;95144.66;;;10.11;63.96
25420;BME280;13354;48.174;11.566;2023-03-25T01:50:30;95141.59;;;10.08;63.75
25420;BME280;13354;48.174;11.566;2023-03-25T01:52:56;95141.00;;;9.99;63.91
25420;BME280;13354;48.174;11.566;2023-03-25T01:55:22;95148.94;;;10.12;63.76
25420;BME280;13354;48.174;11.566;2023-03-25T01:57:48;95145.53;;;10.25;63.37
25420;BME280;13354;48.174;11.566;2023-03-25T02:00:18;95148.94;;;9.99;63.55
25420;BME280;13354;48.174;11.566;2023-03-25T02:02:44;95130.19;;;10.01;63.44
25420;BME280;13354;48.174;11.566;2023-03-25T02:05:14;95159.13;;;10.09;63.21
25420;BME280;13354;48.174;11.566;2023-03-25T02:07:42;95137.13;;;10.08;63.54
25420;BME280;13354;48.174;11.566;2023-03-25T02:10:11;95132.06;;;10.07;63.32
25420;BME280;13354;48.174;11.566;2023-03-25T02:12:36;95126.34;;;9.97;63.57
25420;BME280;13354;48.174;11.566;2023-03-25T02:15:03;95115.38;;;10.13;62.89
25420;BME280;13354;48.174;11.566;2023-03-25T02:33:00;95109.69;;;10.09;63.02
25420;BME280;13354;48.174;11.566;2023-03-25T02:41:20;95131.84;;;9.95;62.58
25420;BME280;13354;48.174;11.566;2023-03-25T02:46:26;95129.38;;;9.93;61.97
25420;BME280;13354;48.174;11.566;2023-03-25T02:51:28;95139.34;;;9.85;62.13
25420;BME280;13354;48.174;11.566;2023-03-25T02:53:55;95131.56;;;9.70;62.24
25420;BME280;13354;48.174;11.566;2023-03-25T02:56:22;95133.44;;;9.76;62.11
25420;BME280;13354;48.174;11.566;2023-03-25T02:58:49;95135.66;;;9.73;62.06
25420;BME280;13354;48.174;11.566;2023-03-25T03:01:19;95130.53;;;9.64;62.55
25420;BME280;13354;48.174;11.566;2023-03-25T03:03:46;95133.38;;;9.63;62.66
25420;BME280;13354;48.174;11.566;2023-03-25T03:06:13;95127.91;;;9.58;63.06
25420;BME280;13354;48.174;11.566;2023-03-25T03:16:22;95114.69;;;9.64;62.16
25420;BME280;13354;48.174;11.566;2023-03-25T03:19:04;95108.78;;;9.56;62.15
25420;BME280;13354;48.174;11.566;2023-03-25T03:28:47;95115.84;;;9.35;62.12
25420;BME280;13354;48.174;11.566;2023-03-25T03:31:27;95126.63;;;9.40;61.91
25420;BME280;13354;48.174;11.566;2023-03-25T03:33:56;95100.69;;;9.16;62.33
25420;BME280;13354;48.174;11.566;2023-03-25T03:36:29;95103.34;;;9.16;62.21
25420;BME280;13354;48.174;11.566;2023-03-25T03:39:00;95111.66;;;9.13;62.77
25420;BME280;13354;48.174;11.566;2023-03-25T03:41:29;95117.19;;;9.18;62.77
25420;BME280;13354;48.174;11.566;2023-03-25T03:46:44;95129.16;;;9.14;63.73
25420;BME280;13354;48.174;11.566;2023-03-25T03:49:08;95125.50;;;9.15;63.86
25420;BME280;13354;48.174;11.566;2023-03-25T03:51:35;95134.59;;;9.12;64.05
25420;BME280;13354;48.174;11.566;2023-03-25T03:54:04;95127.06;;;9.03;64.53
25420;BME280;13354;48.174;11.566;2023-03-25T03:56:31;95127.91;;;9.10;64.13
25420;BME280;13354;48.174;11.566;2023-03-25T03:59:01;95134.19;;;9.02;64.50
25420;BME280;13354;48.174;11.566;2023-03-25T04:01:33;95132.91;;;8.91;64.57
25420;BME280;13354;48.174;11.566;2023-03-25T04:04:00;95142.63;;;8.91;64.99
25420;BME280;13354;48.174;11.566;2023-03-25T04:08:55;95143.81;;;8.82;65.02
25420;BME280;13354;48.174;11.566;2023-03-25T04:11:23;95143.03;;;8.88;64.63
25420;BME280;13354;48.174;11.566;2023-03-25T04:13:51;95143.59;;;8.83;64.73
25420;BME280;13354;48.174;11.566;2023-03-25T04:16:17;95151.63;;;8.68;65.05
25420;BME280;13354;48.174;11.566;2023-03-25T04:18:43;95140.69;;;8.71;65.08
25420;BME280;13354;48.174;11.566;2023-03-25T04:21:12;95141.91;;;8.76;65.04
25420;BME280;13354;48.174;11.566;2023-03-25T04:23:39;95149.13;;;8.60;65.16
25420;BME280;13354;48.174;11.566;2023-03-25T04:26:05;95159.31;;;8.63;65.01
25420;BME280;13354;48.174;11.566;2023-03-25T04:28:30;95152.94;;;8.51;65.07
25420;BME280;13354;48.174;11.566;2023-03-25T04:30:55;95167.97;;;8.57;64.92
25420;BME280;13354;48.174;11.566;2023-03-25T04:33:24;95158.34;;;8.71;64.36
25420;BME280;13354;48.174;11.566;2023-03-25T04:35:49;95149.72;;;8.56;63.92
25420;BME280;13354;48.174;11.566;2023-03-25T04:38:16;95150.81;;;8.68;63.56
25420;BME280;13354;48.174;11.566;2023-03-25T04:40:42;95154.03;;;8.63;63.57
25420;BME280;13354;48.174;11.566;2023-03-25T04:43:10;95160.94;;;8.64;63.66
25420;BME280;13354;48.174;11.566;2023-03-25T04:45:36;95147.50;;;8.59;63.52
25420;BME280;13354;48.174;11.566;2023-03-25T04:48:01;95161.13;;;8.63;63.56
25420;BME280;13354;48.174;11.566;2023-03-25T04:50:30;95148.97;;;8.62;63.58
25420;BME280;13354;48.174;11.566;2023-03-25T04:52:56;95155.66;;;8.64;63.64
25420;BME280;13354;48.174;11.566;2023-03-25T04:55:22;95156.88;;;8.62;63.46
25420;BME280;13354;48.174;11.566;2023-03-25T04:57:48;95151.41;;;8.63;63.26
25420;BME280;13354;48.174;11.566;2023-03-25T05:00:14;95154.47;;;8.67;63.06
25420;BME280;13354;48.174;11.566;2023-03-25T05:02:41;95140.47;;;8.66;63.13
25420;BME280;13354;48.174;11.566;2023-03-25T05:05:09;95142.09;;;8.67;63.15
25420;BME280;13354;48.174;11.566;2023-03-25T05:07:34;95142.50;;;8.71;63.04
25420;BME280;13354;48.174;11.566;2023-03-25T05:10:00;95137.88;;;8.80;62.92
25420;BME280;13354;48.174;11.566;2023-03-25T05:12:25;95138.25;;;8.70;63.00
25420;BME280;13354;48.174;11.566;2023-03-25T05:14:50;95153.88;;;8.71;63.04
25420;BME280;13354;48.174;11.566;2023-03-25T05:17:16;95134.38;;;8.73;62.90
25420;BME280;13354;48.174;11.566;2023-03-25T05:19:41;95147.69;;;8.86;62.69
25420;BME280;13354;48.174;11.566;2023-03-25T05:22:08;95144.19;;;8.79;62.98
25420;BME280;13354;48.174;11.566;2023-03-25T05:24:33;95159.25;;;8.85;62.82
25420;BME280;13354;48.174;11.566;2023-03-25T05:26:58;95154.34;;;8.82;62.74
25420;BME280;13354;48.174;11.566;2023-03-25T05:29:26;95149.94;;;8.89;62.38
25420;BME280;13354;48.174;11.566;2023-03-25T05:31:51;95160.81;;;8.79;62.90
25420;BME280;13354;48.174;11.566;2023-03-25T05:34:16;95156.41;;;8.86;62.44
25420;BME280;13354;48.174;11.566;2023-03-25T05:36:42;95157.84;;;8.89;62.55
25420;BME280;13354;48.174;11.566;2023-03-25T05:39:07;95176.34;;;8.89;62.43
25420;BME280;13354;48.174;11.566;2023-03-25T05:41:33;95182.25;;;8.98;62.06
25420;BME280;13354;48.174;11.566;2023-03-25T05:44:03;95174.22;;;9.06;61.76
25420;BME280;13354;48.174;11.566;2023-03-25T05:46:29;95176.56;;;8.94;62.33
25420;BME280;13354;48.174;11.566;2023-03-25T05:48:54;95179.63;;;8.98;62.60
25420;BME280;13354;48.174;11.566;2023-03-25T05:51:21;95184.19;;;9.10;61.94
25420;BME280;13354;48.174;11.566;2023-03-25T05:53:47;95175.88;;;9.13;62.04
25420;BME280;13354;48.174;11.566;2023-03-25T05:56:13;95193.34;;;9.14;61.48
25420;BME280;13354;48.174;11.566;2023-03-25T05:58:41;95190.09;;;9.19;61.60
25420;BME280;13354;48.174;11.566;2023-03-25T06:01:08;95193.34;;;9.14;61.88
25420;BME280;13354;48.174;11.566;2023-03-25T06:03:34;95201.97;;;9.02;62.46
25420;BME280;13354;48.174;11.566;2023-03-25T06:06:00;95200.41;;;9.07;61.97
25420;BME280;13354;48.174;11.566;2023-03-25T06:08:26;95206.88;;;9.05;61.60
25420;BME280;13354;48.174;11.566;2023-03-25T06:10:56;95206.81;;;8.91;61.35
25420;BME280;13354;48.174;11.566;2023-03-25T06:13:25;95216.50;;;8.84;61.59
25420;BME280;13354;48.174;11.566;2023-03-25T06:15:50;95218.78;;;8.94;60.81
25420;BME280;13354;48.174;11.566;2023-03-25T06:18:20;95218.56;;;8.89;60.66
25420;BME280;13354;48.174;11.566;2023-03-25T06:20:48;95221.97;;;8.83;60.83
25420;BME280;13354;48.174;11.566;2023-03-25T06:23:15;95235.66;;;8.93;60.60
25420;BME280;13354;48.174;11.566;2023-03-25T06:25:40;95231.19;;;8.93;60.11
25420;BME280;13354;48.174;11.566;2023-03-25T06:28:05;95228.97;;;8.97;59.21
25420;BME280;13354;48.174;11.566;2023-03-25T06:30:31;95237.97;;;9.09;58.44
25420;BME280;13354;48.174;11.566;2023-03-25T06:32:56;95236.75;;;9.05;58.10
25420;BME280;13354;48.174;11.566;2023-03-25T06:35:22;95252.19;;;9.08;57.34
25420;BME280;13354;48.174;11.566;2023-03-25T06:37:48;95236.94;;;9.04;56.86
25420;BME280;13354;48.174;11.566;2023-03-25T06:40:13;95234.94;;;9.06;56.58
25420;BME280;13354;48.174;11.566;2023-03-25T06:42:38;95260.38;;;8.85;56.53
25420;BME280;13354;48.174;11.566;2023-03-25T06:45:05;95266.03;;;8.82;56.79
25420;BME280;13354;48.174;11.566;2023-03-25T06:47:32;95257.44;;;8.74;56.75
25420;BME280;13354;48.174;11.566;2023-03-25T06:49:57;95247.84;;;8.66;56.97
25420;BME280;13354;48.174;11.566;2023-03-25T06:52:22;95255.41;;;8.76;56.82
25420;BME280;13354;48.174;11.566;2023-03-25T06:54:48;95253.25;;;8.86;56.75
25420;BME280;13354;48.174;11.566;2023-03-25T06:57:13;95257.06;;;8.77;56.94
25420;BME280;13354;48.174;11.566;2023-03-25T06:59:38;95273.84;;;8.69;57.16
25420;BME280;13354;48.174;11.566;2023-03-25T07:02:03;95271.59;;;8.66;57.57
25420;BME280;13354;48.174;11.566;2023-03-25T07:04:28;95278.72;;;8.72;57.76
25420;BME280;13354;48.174;11.566;2023-03-25T07:06:54;95271.63;;;8.73;58.48
25420;BME280;13354;48.174;11.566;2023-03-25T07:09:19;95276.22;;;8.64;58.75
25420;BME280;13354;48.174;11.566;2023-03-25T07:11:44;95285.53;;;8.60;59.54
25420;BME280;13354;48.174;11.566;2023-03-25T07:14:09;95275.47;;;8.49;60.19
25420;BME280;13354;48.174;11.566;2023-03-25T07:16:35;95288.38;;;8.58;60.08
25420;BME280;13354;48.174;11.566;2023-03-25T07:19:00;95296.09;;;8.60;60.29
25420;BME280;13354;48.174;11.566;2023-03-25T07:21:25;95302.31;;;8.52;61.15
25420;BME280;13354;48.174;11.566;2023-03-25T07:23:50;95294.09;;;8.62;60.76
25420;BME280;13354;48.174;11.566;2023-03-25T07:26:16;95315.19;;;8.62;61.39
25420;BME280;13354;48.174;11.566;2023-03-25T07:28:42;95310.53;;;8.64;61.23
25420;BME280;13354;48.174;11.566;2023-03-25T07:31:07;95292.44;;;8.61;61.06
25420;BME280;13354;48.174;11.566;2023-03-25T07:33:33;95308.38;;;8.53;61.28
25420;BME280;13354;48.174;11.566;2023-03-25T07:35:58;95302.50;;;8.51;61.33
25420;BME280;13354;48.174;11.566;2023-03-25T07:38:23;95311.25;;;8.36;61.79
25420;BME280;13354;48.174;11.566;2023-03-25T07:40:49;95320.09;;;8.43;61.44
25420;BME280;13354;48.174;11.566;2023-03-25T07:43:14;95309.25;;;8.38;62.11
25420;BME280;13354;48.174;11.566;2023-03-25T07:45:39;95311.59;;;8.48;61.91
25420;BME280;13354;48.174;11.566;2023-03-25T07:48:05;95310.06;;;8.39;62.10
25420;BME280;13354;48.174;11.566;2023-03-25T07:50:30;95309.63;;;8.20;61.53
25420;BME280;13354;48.174;11.566;2023-03-25T07:52:55;95323.16;;;8.47;62.02
25420;BME280;13354;48.174;11.566;2023-03-25T07:55:20;95312.63;;;8.47;61.97
25420;BME280;13354;48.174;11.566;2023-03-25T07:57:46;95307.66;;;8.59;62.02
25420;BME280;13354;48.174;11.566;2023-03-25T08:00:11;95325.31;;;8.58;61.95
25420;BME280;13354;48.174;11.566;2023-03-25T08:02:37;95329.81;;;8.64;61.79
25420;BME280;13354;48.174;11.566;2023-03-25T08:05:03;95322.09;;;8.63;61.34
25420;BME280;13354;48.174;11.566;2023-03-25T08:07:29;95312.28;;;8.57;61.81
25420;BME280;13354;48.174;11.566;2023-03-25T08:09:55;95321.81;;;8.58;62.11
25420;BME280;13354;48.174;11.566;2023-03-25T08:12:20;95319.19;;;8.79;61.54
25420;BME280;13354;48.174;11.566;2023-03-25T08:14:45;95322.13;;;8.91;61.25
25420;BME280;13354;48.174;11.566;2023-03-25T08:17:10;95310.53;;;8.85;61.30
25420;BME280;13354;48.174;11.566;2023-03-25T08:19:36;95329.13;;;8.77;61.62
25420;BME280;13354;48.174;11.566;2023-03-25T08:22:01;95330.19;;;8.83;61.45
25420;BME280;13354;48.174;11.566;2023-03-25T08:24:26;95321.47;;;8.82;61.95
25420;BME280;13354;48.174;11.566;2023-03-25T08:26:53;95324.41;;;8.94;61.62
25420;BME280;13354;48.174;11.566;2023-03-25T08:29:19;95318.06;;;9.16;60.75
25420;BME280;13354;48.174;11.566;2023-03-25T08:31:44;95310.19;;;9.23;60.89
25420;BME280;13354;48.174;11.566;2023-03-25T08:34:10;95310.47;;;9.35;60.60
25420;BME280;13354;48.174;11.566;2023-03-25T08:36:36;95305.75;;;9.58;59.95
25420;BME280;13354;48.174;11.566;2023-03-25T08:39:03;95308.03;;;9.68;59.86
25420;BME280;13354;48.174;11.566;2023-03-25T08:41:33;95307.22;;;9.67;60.08
25420;BME280;13354;48.174;11.566;2023-03-25T08:43:58;95310.63;;;9.55;60.44
25420;BME280;13354;48.174;11.566;2023-03-25T08:46:23;95303.16;;;9.65;60.44
25420;BME280;13354;48.174;11.566;2023-03-25T08:48:48;95318.22;;;9.71;60.31
25420;BME280;13354;48.174;11.566;2023-03-25T08:51:14;95309.88;;;9.67;60.46
25420;BME280;13354;48.174;11.566;2023-03-25T08:53:39;95320.66;;;9.66;60.38
25420;BME280;13354;48.174;11.566;2023-03-25T08:56:04;95314.72;;;9.57;60.71
25420;BME280;13354;48.174;11.566;2023-03-25T08:58:31;95313.31;;;9.61;60.66
25420;BME280;13354;48.174;11.566;2023-03-25T09:00:56;95317.75;;;9.54;60.71
25420;BME280;13354;48.174;11.566;2023-03-25T09:03:22;95315.53;;;9.58;60.67
25420;BME280;13354;48.174;11.566;2023-03-25T09:05:47;95324.22;;;9.52;60.53
25420;BME280;13354;48.174;11.566;2023-03-25T09:08:13;95305.63;;;9.38;61.13
25420;BME280;13354;48.174;11.566;2023-03-25T09:10:38;95313.84;;;9.50;60.83
25420;BME280;13354;48.174;11.566;2023-03-25T09:13:03;95319.91;;;9.44;61.21
25420;BME280;13354;48.174;11.566;2023-03-25T09:15:28;95326.69;;;9.60;60.78
25420;BME280;13354;48.174;11.566;2023-03-25T09:17:54;95315.53;;;9.64;60.13
25420;BME280;13354;48.174;11.566;2023-03-25T09:20:20;95326.53;;;9.68;60.50
25420;BME280;13354;48.174;11.566;2023-03-25T09:22:45;95303.56;;;9.62;60.29
25420;BME280;13354;48.174;11.566;2023-03-25T09:25:10;95314.00;;;9.77;60.09
25420;BME280;13354;48.174;11.566;2023-03-25T09:27:36;95291.31;;;9.96;59.99
25420;BME280;13354;48.174;11.566;2023-03-25T09:30:01;95278.44;;;10.40;59.05
25420;BME280;13354;48.174;11.566;2023-03-25T09:32:27;95292.53;;;10.74;57.77
25420;BME280;13354;48.174;11.566;2023-03-25T09:34:52;95265.44;;;11.25;56.32
25420;BME280;13354;48.174;11.566;2023-03-25T09:37:17;95291.34;;;11.23;55.75
25420;BME280;13354;48.174;11.566;2023-03-25T09:39:43;95297.25;;;11.19;55.41
25420;BME280;13354;48.174;11.566;2023-03-25T09:42:28;95271.16;;;11.22;55.30
25420;BME280;13354;48.174;11.566;2023-03-25T09:45:04;95283.19;;;11.31;55.26
25420;BME280;13354;48.174;11.566;2023-03-25T09:47:30;95286.63;;;11.32;55.47
25420;BME280;13354;48.174;11.566;2023-03-25T09:49:58;95276.47;;;11.02;54.76
25420;BME280;13354;48.174;11.566;2023-03-25T09:52:29;95276.88;;;11.12;54.72
25420;BME280;13354;48.174;11.566;2023-03-25T09:55:01;95272.19;;;11.08;54.84
25420;BME280;13354;48.174;11.566;2023-03-25T09:57:30;95266.06;;;11.14;55.15
25420;BME280;13354;48.174;11.566;2023-03-25T09:59:56;95286.00;;;11.30;54.34
25420;BME280;13354;48.174;11.566;2023-03-25T10:02:31;95263.00;;;11.17;54.06
25420;BME280;13354;48.174;11.566;2023-03-25T10:10:01;95273.00;;;11.22;54.49
25420;BME280;13354;48.174;11.566;2023-03-25T10:20:02;95244.97;;;11.59;53.86
25420;BME280;13354;48.174;11.566;2023-03-25T10:22:33;95239.25;;;11.69;53.01
25420;BME280;13354;48.174;11.566;2023-03-25T10:25:03;95230.63;;;11.80;52.84
25420;BME280;13354;48.174;11.566;2023-03-25T10:27:31;95231.88;;;11.77;52.64
25420;BME280;13354;48.174;11.566;2023-03-25T10:35:04;95233.56;;;11.52;51.58
25420;BME280;13354;48.174;11.566;2023-03-25T10:37:32;95230.16;;;11.38;51.25
25420;BME280;13354;48.174;11.566;2023-03-25T10:42:40;95232.44;;;11.15;52.67
25420;BME280;13354;48.174;11.566;2023-03-25T10:45:12;95241.41;;;11.13;53.27
25420;BME280;13354;48.174;11.566;2023-03-25T10:47:38;95246.72;;;10.80;53.93
25420;BME280;13354;48.174;11.566;2023-03-25T10:50:04;95238.78;;;10.87;55.35
25420;BME280;13354;48.174;11.566;2023-03-25T10:52:30;95248.34;;;10.81;56.32
25420;BME280;13354;48.174;11.566;2023-03-25T10:54:55;95225.16;;;10.90;55.53
25420;BME280;13354;48.174;11.566;2023-03-25T10:57:25;95218.38;;;11.01;54.21
25420;BME280;13354;48.174;11.566;2023-03-25T11:02:18;95231.81;;;11.19;52.80
25420;BME280;13354;48.174;11.566;2023-03-25T11:04:44;95228.34;;;11.25;51.74
25420;BME280;13354;48.174;11.566;2023-03-25T11:07:25;95213.47;;;11.24;52.20
25420;BME280;13354;48.174;11.566;2023-03-25T11:09:51;95208.56;;;11.28;52.16
25420;BME280;13354;48.174;11.566;2023-03-25T11:12:17;95216.91;;;11.38;51.96
25420;BME280;13354;48.174;11.566;2023-03-25T11:14:43;95234.28;;;11.07;52.46
25420;BME280;13354;48.174;11.566;2023-03-25T11:17:14;95208.19;;;11.18;52.80
25420;BME280;13354;48.174;11.566;2023-03-25T11:19:43;95197.56;;;11.31;52.70
25420;BME280;13354;48.174;11.566;2023-03-25T11:22:14;95210.66;;;11.12;53.27
25420;BME280;13354;48.174;11.566;2023-03-25T11:24:41;95203.91;;;11.17;53.38
25420;BME280;13354;48.174;11.566;2023-03-25T11:27:08;95201.91;;;11.05;52.97
25420;BME280;13354;48.174;11.566;2023-03-25T11:29:34;95202.13;;;10.97;53.62
25420;BME280;13354;48.174;11.566;2023-03-25T11:32:07;95176.63;;;11.03;53.52
25420;BME280;13354;48.174;11.566;2023-03-25T11:34:34;95189.47;;;11.06;54.32
25420;BME280;13354;48.174;11.566;2023-03-25T11:37:11;95179.22;;;11.29;53.64
25420;BME280;13354;48.174;11.566;2023-03-25T11:39:39;95182.47;;;11.31;53.41
25420;BME280;13354;48.174;11.566;2023-03-25T11:44:49;95156.31;;;11.48;53.40
25420;BME280;13354;48.174;11.566;2023-03-25T11:47:17;95173.38;;;11.66;52.79
25420;BME280;13354;48.174;11.566;2023-03-25T11:49:46;95151.22;;;11.47;52.35
25420;BME280;13354;48.174;11.566;2023-03-25T11:52:14;95157.91;;;11.56;52.69
25420;BME280;13354;48.174;11.566;2023-03-25T11:54:41;95179.44;;;11.28;52.61
25420;BME280;13354;48.174;11.566;2023-03-25T11:57:10;95182.91;;;11.22;53.25
25420;BME280;13354;48.174;11.566;2023-03-25T11:59:38;95163.06;;;11.44;53.31
25420;BME280;13354;48.174;11.566;2023-03-25T12:02:19;95152.69;;;11.43;53.14
25420;BME280;13354;48.174;11.566;2023-03-25T12:04:53;95160.13;;;11.59;52.61
25420;BME280;13354;48.174;11.566;2023-03-25T12:07:19;95164.47;;;11.53;52.53
25420;BME280;13354;48.174;11.566;2023-03-25T12:09:52;95163.25;;;11.49;51.92
25420;BME280;13354;48.174;11.566;2023-03-25T12:12:27;95122.03;;;11.98;50.97
25420;BME280;13354;48.174;11.566;2023-03-25T12:22:52;95132.84;;;12.78;49.60
25420;BME280;13354;48.174;11.566;2023-03-25T12:25:26;95127.69;;;12.58;49.70
25420;BME280;13354;48.174;11.566;2023-03-25T12:27:58;95140.72;;;12.10;50.51
25420;BME280;13354;48.174;11.566;2023-03-25T12:30:30;95154.28;;;11.95;51.09
25420;BME280;13354;48.174;11.566;2023-03-25T12:35:45;95130.13;;;11.72;51.63
25420;BME280;13354;48.174;11.566;2023-03-25T12:38:24;95141.47;;;11.34;52.27
25420;BME280;13354;48.174;11.566;2023-03-25T12:43:18;95142.78;;;11.63;52.58
25420;BME280;13354;48.174;11.566;2023-03-25T12:53:47;95145.69;;;11.48;52.69
25420;BME280;13354;48.174;11.566;2023-03-25T13:11:24;95138.59;;;11.94;51.38
25420;BME280;13354;48.174;11.566;2023-03-25T13:13:50;95129.53;;;12.08;51.13
25420;BME280;13354;48.174;11.566;2023-03-25T13:16:20;95132.47;;;12.50;50.58
25420;BME280;13354;48.174;11.566;2023-03-25T13:18:49;95129.38;;;12.78;49.64
25420;BME280;13354;48.174;11.566;2023-03-25T13:21:28;95103.25;;;12.93;48.83
25420;BME280;13354;48.174;11.566;2023-03-25T13:23:56;95147.00;;;12.91;48.60
25420;BME280;13354;48.174;11.566;2023-03-25T13:26:23;95110.72;;;13.21;48.07
25420;BME280;13354;48.174;11.566;2023-03-25T13:28:50;95150.06;;;12.69;48.91
25420;BME280;13354;48.174;11.566;2023-03-25T13:31:19;95152.84;;;12.56;49.15
25420;BME280;13354;48.174;11.566;2023-03-25T13:34:32;95119.34;;;12.98;49.08
25420;BME280;13354;48.174;11.566;2023-03-25T13:36:35;95140.84;;;13.15;48.19
25420;BME280;13354;48.174;11.566;2023-03-25T13:39:02;95129.47;;;12.90;48.75
25420;BME280;13354;48.174;11.566;2023-03-25T13:41:36;95143.13;;;12.93;48.73
25420;BME280;13354;48.174;11.566;2023-03-25T13:44:13;95147.63;;;12.93;48.69
25420;BME280;13354;48.174;11.566;2023-03-25T13:46:48;95134.56;;;12.66;49.41
25420;BME280;13354;48.174;11.566;2023-03-25T13:49:34;95138.44;;;12.45;50.70
25420;BME280;13354;48.174;11.566;2023-03-25T13:52:01;95134.75;;;12.15;51.86
25420;BME280;13354;48.174;11.566;2023-03-25T13:59:25;95111.22;;;12.50;51.76
25420;BME280;13354;48.174;11.566;2023-03-25T14:02:07;95118.75;;;12.28;51.46
25420;BME280;13354;48.174;11.566;2023-03-25T14:07:20;95119.56;;;12.53;49.79
25420;BME280;13354;48.174;11.566;2023-03-25T14:12:36;95149.34;;;12.55;48.46
25420;BME280;13354;48.174;11.566;2023-03-25T14:15:05;95137.69;;;12.63;48.11
25420;BME280;13354;48.174;11.566;2023-03-25T14:17:33;95128.88;;;12.63;48.40
25420;BME280;13354;48.174;11.566;2023-03-25T14:20:00;95133.38;;;12.62;48.92
25420;BME280;13354;48.174;11.566;2023-03-25T14:22:28;95136.47;;;12.59;48.42
25420;BME280;13354;48.174;11.566;2023-03-25T14:24:55;95129.88;;;12.87;48.52
25420;BME280;13354;48.174;11.566;2023-03-25T14:34:48;95139.94;;;12.60;48.46
25420;BME280;13354;48.174;11.566;2023-03-25T14:39:52;95115.16;;;12.66;48.21
25420;BME280;13354;48.174;11.566;2023-03-25T14:42:24;95126.94;;;12.51;48.89
25420;BME280;13354;48.174;11.566;2023-03-25T14:44:52;95112.03;;;12.50;49.24
25420;BME280;13354;48.174;11.566;2023-03-25T14:47:27;95115.25;;;12.34;49.28
25420;BME280;13354;48.174;11.566;2023-03-25T14:50:04;95121.19;;;12.29;49.73
25420;BME280;13354;48.174;11.566;2023-03-25T14:54:55;95110.50;;;12.61;48.24
25420;BME280;13354;48.174;11.566;2023-03-25T14:57:22;95101.53;;;12.80;48.04
25420;BME280;13354;48.174;11.566;2023-03-25T14:59:49;95124.72;;;12.92;48.47
25420;BME280;13354;48.174;11.566;2023-03-25T15:04:41;95095.66;;;12.78;48.19
25420;BME280;13354;48.174;11.566;2023-03-25T15:07:11;95118.91;;;12.58;48.78
25420;BME280;13354;48.174;11.566;2023-03-25T15:09:43;95108.84;;;12.67;48.81
25420;BME280;13354;48.174;11.566;2023-03-25T15:12:12;95107.00;;;12.67;48.68
25420;BME280;13354;48.174;11.566;2023-03-25T15:14:40;95118.38;;;12.74;48.96